Time;durP1;ratioP1;P1;durP2;ratioP2;P2;SDS_P1;SDS_P2;PMS_P1;PMS_P2;Temp;Humidity;BMP_temperature;BMP_pressure;BME280_temperature;BME280_humidity;BME280_pressure;Samples;Min_cycle;Max_cycle;Signal;HPM_P1;HPM_P2
2022/11/28 00:03:05;;;;;;;9.10;5.72;;;;;;;20.77;57.97;101224.31;20577683;28;20120;-75
2022/11/28 00:13:06;;;;;;;11.20;6.50;;;;;;;20.66;58.18;101233.81;20579229;28;20046;-78
2022/11/28 00:23:06;;;;;;;8.02;5.40;;;;;;;20.68;58.00;101229.25;20578792;28;20049;-81
2022/11/28 00:33:06;;;;;;;9.20;5.97;;;;;;;20.69;58.34;101231.81;20566982;28;20199;-82
2022/11/28 00:43:07;;;;;;;8.93;6.25;;;;;;;20.63;57.98;101238.31;20549905;28;20078;-78
2022/11/28 00:53:07;;;;;;;9.57;6.15;;;;;;;20.66;58.42;101234.63;20566511;28;20512;-75
2022/11/28 01:03:07;;;;;;;9.10;5.78;;;;;;;20.64;57.96;101236.50;20561308;28;20450;-80
2022/11/28 01:13:10;;;;;;;8.38;5.22;;;;;;;20.66;57.92;101236.44;20630882;28;20125;-79
2022/11/28 01:23:10;;;;;;;7.30;5.00;;;;;;;20.64;58.20;101228.59;20677773;28;20570;-78
2022/11/28 01:33:11;;;;;;;7.20;5.30;;;;;;;20.62;57.94;101230.50;20675174;28;20349;-78
2022/11/28 01:43:12;;;;;;;8.23;5.32;;;;;;;20.58;57.87;101221.97;20670433;28;20291;-79
2022/11/28 01:53:15;;;;;;;8.60;5.43;;;;;;;20.57;57.97;101206.28;20663888;28;20533;-80
2022/11/28 02:03:32;;;;;;;8.52;5.28;;;;;;;20.52;57.93;101187.28;20664904;28;20038;-78
2022/11/28 02:13:52;;;;;;;8.65;5.18;;;;;;;20.48;57.94;101181.34;20666377;28;20056;-80
2022/11/28 02:24:11;;;;;;;7.75;5.20;;;;;;;20.48;58.12;101176.97;20648525;28;20053;-79
2022/11/28 02:34:24;;;;;;;7.03;4.57;;;;;;;20.52;58.19;101161.81;20657158;28;20068;-81
2022/11/28 02:44:37;;;;;;;7.28;4.95;;;;;;;20.52;57.91;101156.56;20636292;28;20053;-75
2022/11/28 02:54:41;;;;;;;6.28;4.60;;;;;;;20.54;58.14;101145.94;20644179;28;20816;-80
2022/11/28 03:05:12;;;;;;;5.82;4.28;;;;;;;20.54;58.19;101143.31;20624270;28;20738;-74
2022/11/28 03:15:19;;;;;;;6.72;4.50;;;;;;;20.45;57.88;101137.66;20654605;28;20046;-77
2022/11/28 03:25:37;;;;;;;6.20;4.45;;;;;;;20.51;57.81;101136.44;20650438;28;20865;-80
2022/11/28 03:35:45;;;;;;;6.47;4.55;;;;;;;20.42;57.94;101122.09;20657668;28;20073;-79
2022/11/28 03:45:54;;;;;;;5.75;4.28;;;;;;;20.39;57.97;101103.03;20632752;28;20050;-75
2022/11/28 03:56:03;;;;;;;7.07;4.50;;;;;;;20.39;57.87;101077.56;20645050;28;20081;-77
2022/11/28 04:06:24;;;;;;;5.80;4.18;;;;;;;20.38;57.74;101072.41;20646765;28;20056;-81
2022/11/28 04:16:44;;;;;;;6.43;4.47;;;;;;;20.38;57.72;101069.78;20648157;28;20069;-79
2022/11/28 04:26:56;;;;;;;6.65;4.53;;;;;;;20.35;57.44;101065.56;20641547;28;20105;-79
2022/11/28 04:37:06;;;;;;;6.03;4.20;;;;;;;20.40;57.56;101057.38;20568332;28;20042;-80
2022/11/28 04:47:07;;;;;;;7.53;4.65;;;;;;;20.42;57.29;101066.84;20563714;28;20051;-80
2022/11/28 04:57:10;;;;;;;6.65;4.50;;;;;;;20.46;57.84;101065.72;20547073;28;20056;-76
2022/11/28 05:07:10;;;;;;;5.15;3.75;;;;;;;20.50;58.42;101060.25;20552161;28;20042;-77
2022/11/28 05:17:14;;;;;;;7.47;4.20;;;;;;;20.61;58.80;101069.13;20549144;28;20371;-74
2022/11/28 05:27:14;;;;;;;7.43;4.60;;;;;;;20.73;59.03;101070.19;20553935;28;20051;-75
2022/11/28 05:37:15;;;;;;;19.45;6.00;;;;;;;20.85;59.08;101065.91;20559970;28;20817;-76
2022/11/28 05:47:15;;;;;;;26.88;9.60;;;;;;;20.97;59.29;101080.06;20546292;28;20039;-78
2022/11/28 05:57:16;;;;;;;29.58;9.50;;;;;;;21.04;58.38;101089.22;20535234;28;20057;-79
2022/11/28 06:07:17;;;;;;;32.72;11.35;;;;;;;21.02;56.57;101091.13;20573990;28;20732;-79
2022/11/28 06:17:18;;;;;;;24.77;10.30;;;;;;;21.08;55.28;101087.22;20552669;28;20038;-80
2022/11/28 06:27:18;;;;;;;26.80;8.85;;;;;;;21.18;55.50;101088.31;20565669;28;20050;-85
2022/11/28 06:37:22;;;;;;;23.20;9.02;;;;;;;21.26;55.74;101100.97;20568239;28;20069;-88
2022/11/28 06:47:23;;;;;;;20.88;9.30;;;;;;;21.24;53.93;101098.47;20643173;28;20046;-87
2022/11/28 06:57:23;;;;;;;20.38;9.48;;;;;;;21.21;53.78;101111.81;20665229;28;20073;-85
2022/11/28 07:07:24;;;;;;;17.05;8.30;;;;;;;21.30;54.19;101115.66;20651433;28;20112;-85
2022/11/28 07:17:24;;;;;;;16.15;8.00;;;;;;;21.34;54.06;101114.50;20655092;28;20069;-85
2022/11/28 07:27:25;;;;;;;12.70;6.88;;;;;;;21.38;54.20;101113.31;20654743;28;20057;-83
2022/11/28 07:37:26;;;;;;;11.30;6.60;;;;;;;21.44;53.90;101120.81;20647094;28;20035;-85
2022/11/28 07:47:26;;;;;;;14.32;6.93;;;;;;;21.43;53.50;101090.19;20658412;28;20033;-86
2022/11/28 07:57:27;;;;;;;20.38;6.63;;;;;;;21.49;53.71;101081.00;20633210;28;20417;-81
2022/11/28 08:07:27;;;;;;;17.60;6.18;;;;;;;21.51;54.01;101081.75;20659200;28;20456;-87
2022/11/28 08:17:27;;;;;;;12.18;6.75;;;;;;;21.55;54.50;101072.66;20642642;28;20065;-83
2022/11/28 08:27:28;;;;;;;15.82;6.60;;;;;;;21.61;53.99;101073.25;20669779;28;20053;-82
2022/11/28 08:37:28;;;;;;;16.92;5.97;;;;;;;21.63;53.86;101088.00;20611146;28;20046;-82
2022/11/28 08:47:28;;;;;;;12.60;5.72;;;;;;;21.63;53.49;101093.28;20658438;28;20038;-84
2022/11/28 08:57:29;;;;;;;9.10;5.55;;;;;;;21.65;53.47;101096.63;20618247;28;20117;-82
2022/11/28 09:07:29;;;;;;;9.80;5.60;;;;;;;21.65;52.97;101083.47;20634601;28;20133;-82
2022/11/28 09:17:30;;;;;;;11.35;6.03;;;;;;;21.66;52.67;101082.50;20682337;28;20142;-86
2022/11/28 09:27:30;;;;;;;12.73;7.55;;;;;;;21.65;52.69;101066.81;20663926;28;20137;-85
2022/11/28 09:37:32;;;;;;;11.45;6.82;;;;;;;21.63;52.71;101066.06;20676592;28;20043;-83
2022/11/28 09:47:35;;;;;;;17.40;11.02;;;;;;;21.57;52.46;101049.72;20672707;28;21551;-84
2022/11/28 09:57:39;;;;;;;;;;;;;;;21.54;52.70;101043.78;20687139;28;20089;-80
2022/11/28 10:07:47;;;;;;;12.23;8.23;;;;;;;21.55;53.05;101035.78;20647761;28;19921;-83
2022/11/28 10:18:18;;;;;;;15.98;11.18;;;;;;;21.54;52.29;101017.44;20673278;28;20115;-82
2022/11/28 10:28:25;;;;;;;20.80;11.88;;;;;;;21.55;52.95;101019.97;20673970;28;20485;-81
2022/11/28 10:38:28;;;;;;;15.15;9.15;;;;;;;21.54;52.96;101002.47;20667086;28;20053;-81
2022/11/28 10:48:42;;;;;;;;;;;;;;;21.58;52.46;100995.22;20672869;28;20082;-81
2022/11/28 10:59:30;;;;;;;16.15;10.00;;;;;;;21.56;52.62;100982.16;20669173;28;19937;-84
2022/11/28 11:09:31;;;;;;;13.75;9.75;;;;;;;21.58;52.32;100972.38;20649311;28;20169;-83
2022/11/28 11:19:34;;;;;;;16.30;9.57;;;;;;;21.56;52.42;100971.63;20678531;28;20054;-84
2022/11/28 11:29:36;;;;;;;13.05;9.10;;;;;;;21.54;52.52;100962.94;20662388;28;20047;-76
2022/11/28 11:39:47;;;;;;;13.88;9.60;;;;;;;21.54;53.05;100959.47;20653506;28;20592;-82
2022/11/28 11:49:49;;;;;;;16.45;10.38;;;;;;;21.54;52.96;100965.56;20643701;28;20034;-82
2022/11/28 11:59:54;;;;;;;15.90;11.13;;;;;;;21.52;52.84;100954.31;20655917;28;20145;-82
2022/11/28 12:09:56;;;;;;;17.95;12.00;;;;;;;21.50;52.73;100950.09;20640867;28;20449;-79
2022/11/28 12:20:09;;;;;;;14.63;10.13;;;;;;;21.44;52.69;100941.66;20645515;28;20038;-82
2022/11/28 12:30:54;;;;;;;15.70;10.82;;;;;;;21.39;52.65;100940.31;20649383;28;20047;-82
2022/11/28 12:40:58;;;;;;;18.17;11.35;;;;;;;21.47;52.58;100932.72;20643741;28;20755;-82
2022/11/28 12:51:10;;;;;;;15.38;10.85;;;;;;;21.35;52.57;100926.50;20658695;28;20131;-82
2022/11/28 13:01:34;;;;;;;17.02;11.60;;;;;;;21.32;52.83;100920.63;20634450;28;20042;-81
2022/11/28 13:11:53;;;;;;;15.85;11.55;;;;;;;21.32;52.99;100918.81;20557112;28;20137;-81
2022/11/28 13:21:59;;;;;;;16.65;10.90;;;;;;;21.32;52.70;100920.63;20643946;28;20050;-83
2022/11/28 13:32:22;;;;;;;29.65;11.50;;;;;;;21.31;51.54;100903.13;20626122;28;20148;-82
2022/11/28 13:42:36;;;;;;;17.20;11.27;;;;;;;21.33;52.39;100902.06;20627345;28;20054;-81
2022/11/28 13:52:42;;;;;;;16.38;10.85;;;;;;;21.41;52.60;100904.16;20633077;28;20046;-83
2022/11/28 14:02:46;;;;;;;17.63;10.35;;;;;;;21.41;52.61;100912.91;20634668;28;20424;-77
2022/11/28 14:13:21;;;;;;;17.35;10.10;;;;;;;21.42;51.89;100898.78;20631312;28;20213;-77
2022/11/28 14:23:41;;;;;;;14.38;9.75;;;;;;;21.47;51.90;100887.94;20625438;28;20046;-77
2022/11/28 14:33:44;;;;;;;14.73;10.05;;;;;;;21.44;52.19;100883.69;20634875;28;20038;-77
2022/11/28 14:43:46;;;;;;;15.45;8.95;;;;;;;21.35;53.11;100876.47;20634805;28;20038;-79
2022/11/28 14:53:48;;;;;;;15.00;9.53;;;;;;;21.38;52.43;100884.13;20629895;28;20085;-76
2022/11/28 15:03:57;;;;;;;18.07;8.77;;;;;;;21.30;51.83;100878.59;20634123;28;20042;-78
2022/11/28 15:14:04;;;;;;;16.85;9.57;;;;;;;21.30;52.00;100881.22;20598501;28;20053;-80
2022/11/28 15:24:16;;;;;;;20.30;9.57;;;;;;;21.29;52.32;100892.69;20633065;28;20042;-83
2022/11/28 15:34:36;;;;;;;20.88;10.10;;;;;;;21.37;52.63;100900.06;20654727;28;20042;-88
2022/11/28 15:44:37;;;;;;;15.85;9.43;;;;;;;21.39;53.06;100899.00;20627913;28;20181;-81
2022/11/28 15:54:40;;;;;;;16.40;8.90;;;;;;;21.36;53.25;100896.59;20622279;28;20038;-80
2022/11/28 16:04:41;;;;;;;18.27;9.05;;;;;;;21.31;53.01;100911.03;20612281;28;20699;-79
2022/11/28 16:14:43;;;;;;;15.35;9.02;;;;;;;21.33;52.69;100902.06;20663119;28;20093;-78
2022/11/28 16:24:54;;;;;;;16.80;8.87;;;;;;;21.29;52.96;100919.03;20658483;28;20097;-81
2022/11/28 16:34:54;;;;;;;17.73;9.05;;;;;;;21.21;52.65;100909.00;20651695;28;20525;-78
2022/11/28 16:44:55;;;;;;;14.90;8.82;;;;;;;21.21;53.17;100908.19;20672595;28;20378;-77
2022/11/28 16:54:59;;;;;;;13.43;8.90;;;;;;;21.09;52.83;100902.81;20655876;28;20053;-78
2022/11/28 17:05:01;;;;;;;13.07;8.38;;;;;;;21.11;53.22;100903.53;20636271;28;20049;-78
2022/11/28 17:15:02;;;;;;;13.97;8.90;;;;;;;21.13;53.29;100914.00;20614327;28;20433;-79
2022/11/28 17:25:04;;;;;;;15.40;8.55;;;;;;;21.10;53.31;100909.78;20644013;28;20457;-80
2022/11/28 17:35:28;;;;;;;18.73;9.03;;;;;;;21.10;53.31;100922.94;20650240;28;20062;-78
2022/11/28 17:45:32;;;;;;;12.90;8.70;;;;;;;21.05;52.85;100916.31;20641507;28;20052;-80
2022/11/28 17:55:34;;;;;;;14.00;8.73;;;;;;;20.98;53.25;100921.13;20634917;28;20056;-83
2022/11/28 18:05:45;;;;;;;14.25;8.40;;;;;;;21.08;53.47;100906.41;20636834;28;20073;-81
2022/11/28 18:15:46;;;;;;;18.80;8.75;;;;;;;21.09;53.46;100916.00;20663881;28;20045;-82
2022/11/28 18:25:52;;;;;;;16.17;9.73;;;;;;;21.08;53.76;100924.84;20666620;28;20093;-81
2022/11/28 18:35:52;;;;;;;15.30;10.23;;;;;;;21.14;53.54;100930.63;20666076;28;20200;-86
2022/11/28 18:45:53;;;;;;;23.98;11.57;;;;;;;21.11;53.92;100929.03;20670175;28;20045;-84
2022/11/28 18:56:01;;;;;;;19.83;13.18;;;;;;;21.01;53.53;100926.19;20695032;28;20042;-85
2022/11/28 19:06:07;;;;;;;22.73;12.40;;;;;;;21.04;53.71;100923.34;20671913;28;20129;-82
2022/11/28 19:16:14;;;;;;;21.27;13.02;;;;;;;21.09;54.56;100923.91;20673861;28;20046;-81
2022/11/28 19:26:18;;;;;;;74.97;22.50;;;;;;;21.15;55.85;100917.34;20653797;28;20111;-84
2022/11/28 19:36:18;;;;;;;127.57;31.50;;;;;;;21.18;57.20;100917.16;20634836;28;20041;-81
2022/11/28 19:46:19;;;;;;;98.55;30.58;;;;;;;21.21;58.35;100922.19;20632451;28;20076;-86
2022/11/28 19:56:21;;;;;;;92.22;28.90;;;;;;;21.30;61.27;100933.03;20659422;28;20053;-81
2022/11/28 20:06:24;;;;;;;83.00;28.23;;;;;;;21.25;61.22;100928.09;20632632;28;20165;-82
2022/11/28 20:16:25;;;;;;;56.80;23.45;;;;;;;20.98;56.99;100925.56;20622502;28;20408;-80
2022/11/28 20:26:25;;;;;;;52.67;21.90;;;;;;;21.05;56.61;100918.94;20639166;28;20038;-79
2022/11/28 20:36:28;;;;;;;47.85;19.85;;;;;;;20.98;56.67;100920.31;20631714;28;20050;-79
2022/11/28 20:46:53;;;;;;;45.83;19.60;;;;;;;20.95;56.68;100921.34;20643943;28;20069;-81
2022/11/28 20:56:53;;;;;;;45.35;18.08;;;;;;;20.89;56.63;100919.97;20645784;28;20100;-79
2022/11/28 21:06:53;;;;;;;39.03;17.88;;;;;;;20.86;56.17;100936.00;20653795;28;20046;-81
2022/11/28 21:16:55;;;;;;;40.55;17.00;;;;;;;20.85;56.18;100946.59;20644089;28;20056;-81
2022/11/28 21:26:55;;;;;;;39.10;17.23;;;;;;;20.83;56.36;100944.06;20659538;28;20112;-81
2022/11/28 21:36:56;;;;;;;32.00;15.07;;;;;;;20.85;56.40;100934.28;20649997;28;20050;-78
2022/11/28 21:46:56;;;;;;;28.38;14.52;;;;;;;20.81;56.19;100942.50;20690386;28;20039;-78
2022/11/28 21:56:56;;;;;;;33.50;15.35;;;;;;;20.77;56.43;100947.94;20665828;28;20614;-78
2022/11/28 22:06:56;;;;;;;29.02;13.63;;;;;;;20.74;56.43;100945.53;20673423;28;20045;-80
2022/11/28 22:16:57;;;;;;;26.10;13.60;;;;;;;20.71;56.30;100948.34;20673673;28;20398;-78
2022/11/28 22:26:57;;;;;;;26.85;12.82;;;;;;;20.70;56.18;100961.59;20613074;28;20492;-79
2022/11/28 22:36:58;;;;;;;25.67;12.90;;;;;;;20.71;56.45;100944.88;20647199;28;20049;-77
2022/11/28 22:46:58;;;;;;;26.08;13.05;;;;;;;20.72;56.16;100944.78;20655704;28;20046;-78
2022/11/28 22:56:59;;;;;;;21.88;12.40;;;;;;;20.68;56.18;100945.06;20642241;28;20137;-77
2022/11/28 23:06:59;;;;;;;22.60;12.27;;;;;;;20.67;56.03;100946.84;20640556;28;20130;-76
2022/11/28 23:17:01;;;;;;;20.52;11.00;;;;;;;20.65;56.47;100943.47;20644153;28;20113;-77
2022/11/28 23:27:01;;;;;;;20.02;10.38;;;;;;;20.62;56.01;100946.34;20650643;28;20042;-79
2022/11/28 23:37:01;;;;;;;18.67;10.07;;;;;;;20.61;56.31;100950.72;20648754;28;20057;-79
2022/11/28 23:47:02;;;;;;;14.85;9.32;;;;;;;20.57;56.41;100944.00;20648685;28;20056;-79
2022/11/28 23:57:02;;;;;;;17.08;9.93;;;;;;;20.55;56.17;100943.25;20658649;28;20405;-79
